createdAt,value
2024-05-09T00:00:29.645Z,18.67
2024-05-09T00:03:17.215Z,18.60
2024-05-09T00:06:03.554Z,16.80
2024-05-09T00:08:49.583Z,18.20
2024-05-09T00:11:36.156Z,18.98
2024-05-09T00:14:22.460Z,17.63
2024-05-09T00:17:08.823Z,17.30
2024-05-09T00:19:54.979Z,15.88
2024-05-09T00:22:41.033Z,19.27
2024-05-09T00:25:26.760Z,18.00
2024-05-09T00:28:14.105Z,16.60
2024-05-09T00:30:59.971Z,16.33
2024-05-09T00:33:45.860Z,17.38
2024-05-09T00:36:32.026Z,17.88
2024-05-09T00:39:17.655Z,20.02
2024-05-09T00:42:03.921Z,19.80
2024-05-09T00:44:49.804Z,18.05
2024-05-09T00:47:36.193Z,21.38
2024-05-09T00:50:29.604Z,19.63
2024-05-09T00:53:21.201Z,18.83
2024-05-09T00:56:09.748Z,19.00
2024-05-09T00:58:56.249Z,17.13
2024-05-09T01:01:43.452Z,18.38
2024-05-09T01:04:29.458Z,20.88
2024-05-09T01:07:15.386Z,18.48
2024-05-09T01:10:01.342Z,17.65
2024-05-09T01:12:48.116Z,17.60
2024-05-09T01:15:35.034Z,18.92
2024-05-09T01:18:21.529Z,17.88
2024-05-09T01:21:09.422Z,19.20
2024-05-09T01:23:55.214Z,18.75
2024-05-09T01:26:41.303Z,18.17
2024-05-09T01:29:27.387Z,17.58
2024-05-09T01:32:13.601Z,17.73
2024-05-09T01:34:59.710Z,17.85
2024-05-09T01:37:46.087Z,17.60
2024-05-09T01:40:37.827Z,17.48
2024-05-09T01:43:25.710Z,17.92
2024-05-09T01:46:16.193Z,20.05
2024-05-09T01:49:02.376Z,18.25
2024-05-09T01:51:48.423Z,17.75
2024-05-09T01:54:34.264Z,16.55
2024-05-09T01:57:20.189Z,17.23
2024-05-09T02:00:07.952Z,17.75
2024-05-09T02:02:56.387Z,18.27
2024-05-09T02:05:43.526Z,17.67
2024-05-09T02:08:29.936Z,17.08
2024-05-09T02:11:16.339Z,16.40
2024-05-09T02:14:02.676Z,16.45
2024-05-09T02:16:48.817Z,16.63
2024-05-09T02:19:34.952Z,15.60
2024-05-09T02:22:21.294Z,16.83
2024-05-09T02:25:07.515Z,16.00
2024-05-09T02:27:53.681Z,18.10
2024-05-09T02:30:41.738Z,15.32
2024-05-09T02:33:29.023Z,17.80
2024-05-09T02:36:15.291Z,17.08
2024-05-09T02:39:01.490Z,19.30
2024-05-09T02:41:47.569Z,16.15
2024-05-09T02:44:33.652Z,17.65
2024-05-09T02:47:19.563Z,16.85
2024-05-09T02:50:07.880Z,18.63
2024-05-09T02:52:54.032Z,17.20
2024-05-09T02:55:40.720Z,17.85
2024-05-09T02:58:26.430Z,19.25
2024-05-09T03:01:12.604Z,16.85
2024-05-09T03:03:58.435Z,17.10
2024-05-09T03:06:44.718Z,14.98
2024-05-09T03:09:30.845Z,18.17
2024-05-09T03:12:16.909Z,18.10
2024-05-09T03:15:02.968Z,19.48
2024-05-09T03:17:49.481Z,17.02
2024-05-09T03:20:36.718Z,16.33
2024-05-09T03:23:22.769Z,17.88
2024-05-09T03:26:17.390Z,17.73
2024-05-09T03:29:03.420Z,21.58
2024-05-09T03:31:49.204Z,16.23
2024-05-09T03:34:35.562Z,17.08
2024-05-09T03:37:21.735Z,18.20
2024-05-09T03:40:14.506Z,18.42
2024-05-09T03:43:04.117Z,19.80
2024-05-09T03:45:50.651Z,20.63
2024-05-09T03:48:36.979Z,17.95
2024-05-09T03:51:23.375Z,18.90
2024-05-09T03:54:08.985Z,18.42
2024-05-09T03:56:54.860Z,18.23
2024-05-09T03:59:40.963Z,17.25
2024-05-09T04:02:26.656Z,16.05
2024-05-09T04:05:12.708Z,18.70
2024-05-09T04:07:58.904Z,16.50
2024-05-09T04:10:45.995Z,17.50
2024-05-09T04:13:32.149Z,17.58
2024-05-09T04:16:18.442Z,16.95
2024-05-09T04:19:04.606Z,16.05
2024-05-09T04:21:50.798Z,16.95
2024-05-09T04:24:36.331Z,16.17
2024-05-09T04:27:22.361Z,14.55
2024-05-09T04:30:15.309Z,14.65
2024-05-09T04:33:10.281Z,14.80
2024-05-09T04:35:58.481Z,14.98
2024-05-09T04:38:44.692Z,16.80
2024-05-09T04:41:30.809Z,16.25
2024-05-09T04:44:17.106Z,16.08
2024-05-09T04:47:02.860Z,14.57
2024-05-09T04:49:48.913Z,14.43
2024-05-09T04:52:34.608Z,13.77
2024-05-09T04:55:20.445Z,17.00
2024-05-09T04:58:11.642Z,14.43
2024-05-09T05:00:57.300Z,16.45
2024-05-09T05:03:43.184Z,14.52
2024-05-09T05:06:30.239Z,14.48
2024-05-09T05:09:15.900Z,13.93
2024-05-09T05:12:02.943Z,14.27
2024-05-09T05:14:49.062Z,14.55
2024-05-09T05:17:35.081Z,13.02
2024-05-09T05:20:27.565Z,15.05
2024-05-09T05:23:21.292Z,12.88
2024-05-09T05:26:07.440Z,11.40
2024-05-09T05:28:53.252Z,12.75
2024-05-09T05:31:39.271Z,16.83
2024-05-09T05:34:24.991Z,13.80
2024-05-09T05:37:10.863Z,11.98
2024-05-09T05:39:58.217Z,17.33
2024-05-09T05:42:43.677Z,13.20
2024-05-09T05:45:29.868Z,13.07
2024-05-09T05:48:17.552Z,12.93
2024-05-09T05:51:05.753Z,16.52
2024-05-09T05:53:51.637Z,13.15
2024-05-09T05:56:37.506Z,10.63
2024-05-09T05:59:24.265Z,13.45
2024-05-09T06:02:11.123Z,10.98
2024-05-09T06:04:57.310Z,14.35
2024-05-09T06:07:43.941Z,21.30
2024-05-09T06:10:37.678Z,15.40
2024-05-09T06:13:25.913Z,12.73
2024-05-09T06:16:11.745Z,11.00
2024-05-09T06:18:57.974Z,13.40
2024-05-09T06:21:43.729Z,12.70
2024-05-09T06:24:29.713Z,10.68
2024-05-09T06:27:15.522Z,11.77
2024-05-09T06:30:01.786Z,13.32
2024-05-09T06:32:48.189Z,11.20
2024-05-09T06:35:34.453Z,13.50
2024-05-09T06:38:20.727Z,16.45
2024-05-09T06:41:06.827Z,12.75
2024-05-09T06:43:52.696Z,13.85
2024-05-09T06:46:40.260Z,15.10
2024-05-09T06:49:29.140Z,13.10
2024-05-09T06:55:00.971Z,10.48
2024-05-09T06:57:47.007Z,13.40
2024-05-09T07:00:38.943Z,11.55
2024-05-09T07:03:27.264Z,10.07
2024-05-09T07:06:13.638Z,10.70
2024-05-09T07:08:59.507Z,13.32
2024-05-09T07:11:45.319Z,15.45
2024-05-09T07:14:32.327Z,12.05
2024-05-09T07:17:20.029Z,13.07
2024-05-09T07:20:09.249Z,10.82
2024-05-09T07:22:59.914Z,14.23
2024-05-09T07:25:46.182Z,10.10
2024-05-09T07:28:32.416Z,9.30
2024-05-09T07:31:18.292Z,12.38
2024-05-09T07:34:04.393Z,9.85
2024-05-09T07:36:50.559Z,11.90
2024-05-09T07:39:36.314Z,10.88
2024-05-09T07:42:22.441Z,13.25
2024-05-09T07:45:29.564Z,13.90
2024-05-09T07:49:44.964Z,9.77
2024-05-09T07:54:09.255Z,12.82
2024-05-09T07:56:55.633Z,11.32
2024-05-09T07:59:41.612Z,9.90
2024-05-09T08:02:27.968Z,10.80
2024-05-09T08:05:14.306Z,10.48
2024-05-09T08:08:00.511Z,9.05
2024-05-09T08:10:46.668Z,13.63
2024-05-09T08:13:32.546Z,9.68
2024-05-09T08:16:18.686Z,9.13
2024-05-09T08:19:05.031Z,9.98
2024-05-09T08:21:50.946Z,10.30
2024-05-09T08:24:37.170Z,9.30
2024-05-09T08:27:23.417Z,13.30
2024-05-09T08:30:18.440Z,9.98
2024-05-09T08:33:08.328Z,15.57
2024-05-09T08:35:53.965Z,14.27
2024-05-09T08:38:39.714Z,9.73
2024-05-09T08:41:25.887Z,9.55
2024-05-09T08:44:11.819Z,9.77
2024-05-09T08:46:57.941Z,9.65
2024-05-09T08:49:43.561Z,11.90
2024-05-09T08:52:29.400Z,28.10
2024-05-09T08:55:15.748Z,9.68
2024-05-09T08:58:03.853Z,7.88
2024-05-09T09:00:49.984Z,12.55
2024-05-09T09:03:37.771Z,9.15
2024-05-09T09:06:25.453Z,9.93
2024-05-09T09:09:12.269Z,11.73
2024-05-09T09:11:58.383Z,11.55
2024-05-09T09:14:44.976Z,10.93
2024-05-09T09:17:30.751Z,9.27
2024-05-09T09:20:23.187Z,8.00
2024-05-09T09:23:15.564Z,6.80
2024-05-09T09:26:01.871Z,7.55
2024-05-09T09:28:47.831Z,6.32
2024-05-09T09:31:33.717Z,5.90
2024-05-09T09:34:20.040Z,6.63
2024-05-09T09:37:11.389Z,6.47
2024-05-09T09:39:59.407Z,5.43
2024-05-09T09:42:50.237Z,8.52
2024-05-09T09:45:36.657Z,6.78
2024-05-09T09:48:23.679Z,5.40
2024-05-09T09:51:10.174Z,5.43
2024-05-09T09:53:56.531Z,6.65
2024-05-09T09:56:44.881Z,5.97
2024-05-09T09:59:33.645Z,8.70
2024-05-09T10:02:20.003Z,5.80
2024-05-09T10:05:08.702Z,7.45
2024-05-09T10:07:55.482Z,4.40
2024-05-09T10:10:47.730Z,4.63
2024-05-09T10:13:37.741Z,4.70
2024-05-09T10:16:23.477Z,7.57
2024-05-09T10:19:09.798Z,7.68
2024-05-09T10:22:03.817Z,6.60
2024-05-09T10:24:52.157Z,5.85
2024-05-09T10:27:38.394Z,4.55
2024-05-09T10:33:13.233Z,6.13
2024-05-09T10:36:04.798Z,5.63
2024-05-09T10:38:52.268Z,5.65
2024-05-09T10:41:38.353Z,3.00
2024-05-09T10:44:24.655Z,3.35
2024-05-09T10:47:10.642Z,3.15
2024-05-09T10:49:59.938Z,4.70
2024-05-09T10:52:45.693Z,2.92
2024-05-09T10:55:31.521Z,2.47
2024-05-09T10:58:20.446Z,6.47
2024-05-09T11:03:54.212Z,3.38
2024-05-09T11:06:40.787Z,5.03
2024-05-09T11:09:27.144Z,3.30
2024-05-09T11:12:13.380Z,11.52
2024-05-09T11:14:59.285Z,5.40
2024-05-09T11:17:45.170Z,5.93
2024-05-09T11:20:40.045Z,5.78
2024-05-09T11:23:32.217Z,6.63
2024-05-09T11:26:21.457Z,5.75
2024-05-09T11:29:07.126Z,4.93
2024-05-09T11:31:52.941Z,4.28
2024-05-09T11:34:39.607Z,6.78
2024-05-09T11:37:25.319Z,7.30
2024-05-09T11:40:17.019Z,6.40
2024-05-09T11:43:10.371Z,7.25
2024-05-09T11:45:58.208Z,7.95
2024-05-09T11:48:45.003Z,6.90
2024-05-09T11:51:31.052Z,5.50
2024-05-09T11:54:17.884Z,5.65
2024-05-09T11:57:04.139Z,5.05
2024-05-09T11:59:50.919Z,5.72
2024-05-09T12:02:36.806Z,4.32
2024-05-09T12:05:22.841Z,4.63
2024-05-09T12:08:09.232Z,6.15
2024-05-09T12:10:55.310Z,8.05
2024-05-09T12:13:41.918Z,5.05
2024-05-09T12:16:28.167Z,5.93
2024-05-09T12:19:14.272Z,4.93
2024-05-09T12:22:00.296Z,7.10
2024-05-09T12:24:46.022Z,8.48
2024-05-09T12:27:32.517Z,5.70
2024-05-09T12:30:29.068Z,5.20
2024-05-09T12:33:22.473Z,5.15
2024-05-09T12:36:08.550Z,3.83
2024-05-09T12:38:54.239Z,3.72
2024-05-09T12:41:39.900Z,5.07
2024-05-09T12:44:25.769Z,10.73
2024-05-09T12:47:11.591Z,4.63
2024-05-09T12:49:57.532Z,7.50
2024-05-09T12:52:43.839Z,5.90
2024-05-09T12:55:33.956Z,13.25
2024-05-09T12:58:27.167Z,5.85
2024-05-09T13:01:13.058Z,4.90
2024-05-09T13:03:59.554Z,7.82
2024-05-09T13:06:45.544Z,7.22
2024-05-09T13:09:31.774Z,21.60
2024-05-09T13:12:17.524Z,3.50
2024-05-09T13:15:03.691Z,4.70
2024-05-09T13:17:50.130Z,4.95
2024-05-09T13:20:37.217Z,5.35
2024-05-09T13:23:23.137Z,3.92
2024-05-09T13:26:08.855Z,6.93
2024-05-09T13:28:54.772Z,6.60
2024-05-09T13:31:40.691Z,5.68
2024-05-09T13:34:26.784Z,5.22
2024-05-09T13:37:12.807Z,5.18
2024-05-09T13:39:59.885Z,4.22
2024-05-09T13:42:48.770Z,5.70
2024-05-09T13:45:35.469Z,4.35
2024-05-09T13:48:21.482Z,5.57
2024-05-09T13:51:07.182Z,4.30
2024-05-09T13:53:52.826Z,4.90
2024-05-09T13:56:38.958Z,5.00
2024-05-09T13:59:24.885Z,5.43
2024-05-09T14:02:11.085Z,4.40
2024-05-09T14:04:57.161Z,5.47
2024-05-09T14:07:44.021Z,3.22
2024-05-09T14:10:31.900Z,2.80
2024-05-09T14:13:20.212Z,3.15
2024-05-09T14:16:06.874Z,4.28
2024-05-09T14:18:52.436Z,3.38
2024-05-09T14:21:38.527Z,6.45
2024-05-09T14:24:24.666Z,3.55
2024-05-09T14:27:10.316Z,4.07
2024-05-09T14:29:56.313Z,6.13
2024-05-09T14:32:42.344Z,9.10
2024-05-09T14:35:28.586Z,3.60
2024-05-09T14:38:14.484Z,4.82
2024-05-09T14:41:00.199Z,5.57
2024-05-09T14:43:46.149Z,3.53
2024-05-09T14:46:32.223Z,5.00
2024-05-09T14:49:18.347Z,5.30
2024-05-09T14:52:05.346Z,7.10
2024-05-09T14:54:59.944Z,4.93
2024-05-09T14:57:46.641Z,3.40
2024-05-09T15:00:35.966Z,4.10
2024-05-09T15:03:23.415Z,3.45
2024-05-09T15:06:09.404Z,4.05
2024-05-09T15:08:59.647Z,5.82
2024-05-09T15:11:47.510Z,5.43
2024-05-09T15:14:33.203Z,6.75
2024-05-09T15:17:19.295Z,3.50
2024-05-09T15:20:09.241Z,3.72
2024-05-09T15:22:55.104Z,5.28
2024-05-09T15:25:41.034Z,3.70
2024-05-09T15:28:26.948Z,3.92
2024-05-09T15:31:12.587Z,4.68
2024-05-09T15:33:58.778Z,4.32
2024-05-09T15:36:48.288Z,5.72
2024-05-09T15:39:33.849Z,4.32
2024-05-09T15:42:19.770Z,5.93
2024-05-09T15:45:07.217Z,3.53
2024-05-09T15:47:53.173Z,4.72
2024-05-09T15:50:41.631Z,5.60
2024-05-09T15:53:29.292Z,4.25
2024-05-09T15:56:15.289Z,6.65
2024-05-09T15:59:01.429Z,4.13
2024-05-09T16:01:47.891Z,6.13
2024-05-09T16:04:34.073Z,8.02
2024-05-09T16:07:20.397Z,7.18
2024-05-09T16:10:07.139Z,7.40
2024-05-09T16:12:53.066Z,4.70
2024-05-09T16:15:39.402Z,8.63
2024-05-09T16:18:25.794Z,5.28
2024-05-09T16:21:11.502Z,5.30
2024-05-09T16:23:59.438Z,5.25
2024-05-09T16:26:45.541Z,6.40
2024-05-09T16:29:31.787Z,6.93
2024-05-09T16:32:17.547Z,6.78
2024-05-09T16:35:03.356Z,4.55
2024-05-09T16:37:49.817Z,3.78
2024-05-09T16:40:39.865Z,4.60
2024-05-09T16:43:27.089Z,5.82
2024-05-09T16:46:13.305Z,4.70
2024-05-09T16:48:59.229Z,4.13
2024-05-09T16:51:45.412Z,9.60
2024-05-09T16:54:31.000Z,4.93
2024-05-09T16:57:17.189Z,5.97
2024-05-09T17:00:04.348Z,4.35
2024-05-09T17:02:54.299Z,6.63
2024-05-09T17:05:40.967Z,6.10
2024-05-09T17:08:27.434Z,7.65
2024-05-09T17:11:15.502Z,6.75
2024-05-09T17:14:01.384Z,5.88
2024-05-09T17:16:47.604Z,6.22
2024-05-09T17:19:34.062Z,3.92
2024-05-09T17:22:20.761Z,5.95
2024-05-09T17:25:07.225Z,5.47
2024-05-09T17:27:53.365Z,5.55
2024-05-09T17:30:41.103Z,4.15
2024-05-09T17:33:28.931Z,4.00
2024-05-09T17:36:15.107Z,4.10
2024-05-09T17:39:00.832Z,6.85
2024-05-09T17:41:46.539Z,4.05
2024-05-09T17:44:32.231Z,5.43
2024-05-09T17:47:18.194Z,10.77
2024-05-09T17:50:07.371Z,11.00
2024-05-09T17:52:55.284Z,12.00
2024-05-09T17:55:41.575Z,6.97
2024-05-09T17:58:27.885Z,10.98
2024-05-09T18:01:14.213Z,7.65
2024-05-09T18:04:00.391Z,6.32
2024-05-09T18:06:46.610Z,6.63
2024-05-09T18:09:32.614Z,4.85
2024-05-09T18:12:18.788Z,6.03
2024-05-09T18:15:05.305Z,7.28
2024-05-09T18:17:52.914Z,11.57
2024-05-09T18:20:43.924Z,17.20
2024-05-09T18:23:32.580Z,18.50
2024-05-09T18:26:19.282Z,16.70
2024-05-09T18:29:05.195Z,35.35
2024-05-09T18:31:51.235Z,49.15
2024-05-09T18:34:36.940Z,31.40
2024-05-09T18:37:22.904Z,16.75
2024-05-09T18:40:14.885Z,13.70
2024-05-09T18:43:06.847Z,8.70
2024-05-09T18:45:54.460Z,8.30
2024-05-09T18:48:40.411Z,5.45
2024-05-09T18:51:26.769Z,3.97
2024-05-09T18:54:13.026Z,5.65
2024-05-09T18:56:59.319Z,7.30
2024-05-09T18:59:45.521Z,5.07
2024-05-09T19:02:31.483Z,6.00
2024-05-09T19:05:17.761Z,6.18
2024-05-09T19:08:03.620Z,6.40
2024-05-09T19:10:52.353Z,9.15
2024-05-09T19:13:38.566Z,5.25
2024-05-09T19:16:24.793Z,5.00
2024-05-09T19:19:11.108Z,10.00
2024-05-09T19:22:00.500Z,7.68
2024-05-09T19:27:32.715Z,5.90
2024-05-09T19:30:29.005Z,8.07
2024-05-09T19:33:22.217Z,7.57
2024-05-09T19:36:08.856Z,10.00
2024-05-09T19:38:56.178Z,5.88
2024-05-09T19:41:42.242Z,6.95
2024-05-09T19:44:31.744Z,4.45
2024-05-09T19:47:18.019Z,5.32
2024-05-09T19:50:06.332Z,6.60
2024-05-09T19:52:56.362Z,5.18
2024-05-09T19:55:43.064Z,6.78
2024-05-09T19:58:28.983Z,7.65
2024-05-09T20:01:15.186Z,6.55
2024-05-09T20:04:01.411Z,6.07
2024-05-09T20:06:47.696Z,6.50
2024-05-09T20:09:33.395Z,6.28
2024-05-09T20:12:19.149Z,4.90
2024-05-09T20:15:05.921Z,4.95
2024-05-09T20:17:52.060Z,5.57
2024-05-09T20:20:41.896Z,5.75
2024-05-09T20:23:29.918Z,5.22
2024-05-09T20:26:15.955Z,5.90
2024-05-09T20:29:02.161Z,5.53
2024-05-09T20:31:47.900Z,7.93
2024-05-09T20:34:34.185Z,5.38
2024-05-09T20:37:20.722Z,7.55
2024-05-09T20:40:12.135Z,7.03
2024-05-09T20:43:01.702Z,6.57
2024-05-09T20:45:48.322Z,5.43
2024-05-09T20:48:34.958Z,7.57
2024-05-09T20:51:21.738Z,5.78
2024-05-09T20:54:07.908Z,9.95
2024-05-09T20:56:53.809Z,7.90
2024-05-09T20:59:39.779Z,5.82
2024-05-09T21:02:25.809Z,6.35
2024-05-09T21:05:13.989Z,7.20
2024-05-09T21:08:00.024Z,5.50
2024-05-09T21:10:45.771Z,5.75
2024-05-09T21:13:31.912Z,5.63
2024-05-09T21:16:17.711Z,7.53
2024-05-09T21:19:04.188Z,4.80
2024-05-09T21:21:51.841Z,6.55
2024-05-09T21:24:38.416Z,5.93
2024-05-09T21:27:24.836Z,4.85
2024-05-09T21:30:18.420Z,6.10
2024-05-09T21:33:11.301Z,11.35
2024-05-09T21:35:59.012Z,4.75
2024-05-09T21:38:45.036Z,6.43
2024-05-09T21:41:30.755Z,7.10
2024-05-09T21:44:16.977Z,5.35
2024-05-09T21:47:03.064Z,8.50
2024-05-09T21:49:49.224Z,6.03
2024-05-09T21:52:35.291Z,7.93
2024-05-09T21:55:22.172Z,7.63
2024-05-09T21:58:08.213Z,5.10
2024-05-09T22:00:54.330Z,7.50
2024-05-09T22:03:40.590Z,7.78
2024-05-09T22:06:26.786Z,5.30
2024-05-09T22:09:12.652Z,7.60
2024-05-09T22:11:58.650Z,6.80
2024-05-09T22:14:44.668Z,4.88
2024-05-09T22:17:30.879Z,7.18
2024-05-09T22:20:25.042Z,8.50
2024-05-09T22:23:15.990Z,5.90
2024-05-09T22:26:01.811Z,5.97
2024-05-09T22:28:48.296Z,6.72
2024-05-09T22:31:33.920Z,7.25
2024-05-09T22:34:19.761Z,4.40
2024-05-09T22:37:06.138Z,6.22
2024-05-09T22:39:52.048Z,6.57
2024-05-09T22:42:41.104Z,9.23
2024-05-09T22:48:13.479Z,5.78
2024-05-09T22:50:59.810Z,7.70
2024-05-09T22:53:45.817Z,8.43
2024-05-09T22:56:31.757Z,6.68
2024-05-09T22:59:17.472Z,5.88
2024-05-09T23:02:03.523Z,5.28
2024-05-09T23:04:49.474Z,6.35
2024-05-09T23:07:35.660Z,8.43
2024-05-09T23:10:28.197Z,9.70
2024-05-09T23:16:07.201Z,7.85
2024-05-09T23:18:53.209Z,10.70
2024-05-09T23:21:42.545Z,9.25
2024-05-09T23:27:15.981Z,6.65
2024-05-09T23:30:01.639Z,9.10
2024-05-09T23:32:47.639Z,8.40
2024-05-09T23:35:33.742Z,7.45
2024-05-09T23:38:22.463Z,7.68
2024-05-09T23:41:10.025Z,7.40
2024-05-09T23:43:56.064Z,6.03
2024-05-09T23:46:42.027Z,6.05
2024-05-09T23:49:27.753Z,6.03
2024-05-09T23:52:13.611Z,8.05
2024-05-09T23:55:00.068Z,8.05
2024-05-09T23:57:45.940Z,9.13
